Wadsworth, Illinois
Current Conditions -  °F | °C
As of 6:55 PM on Tuesday 25 Nov 2014 (Local Time) from KUGN Reporting Station
Overcast Overcast  
Wind Chill: 13°   Ceiling: 1500
Heat Index: 20°   Visibility: 10mi
Dew Point: 14°   Wind: 5mph
Humidity: 78%   Direction: 210°SSW
Pressure: 30.15"   Gusts: NA
Location:  42.43°N, 87.92°W
Report Text: KUGN 260055Z 21004KT 10SM OVC015 M07/M10 A3015 RMK AO2 SLP230 T10671100
Loading
Personal Weather Stations






























Interactive Weather Map New forecast layout! Learn more

10-Day Weather Forecast

Advertisements
Track Severe Weather on mobile